Laguepe — 9HAI9 — position and weather

sailwx.info

Track history (hours):
 
Tides and Currents Weather Stations Pressure Air Temp Water Temp Dewpoint Dewpoint Depression Visibility Wind Speed Wind Dir Waves Ship Positions

Laguepe

Last reported at 2017-Jan-18 15:33 UTC. Time now 2017-Jan-20 16:08 UTC.
Position N 43°42' E 004°37'.

Length 81 m; draft 3.2 m.

Type: Cargo ship. MMSI: 256681000.

Date/timePositionNaut miles runAvg speedWind from/ knotsBaromVisibWave heightAir tempDewpointWater temp
2017-Jan-18 15:33N 43°42' E 004°37'0 0.0
2017-Jan-18 14:27N 43°42' E 004°37'0 0.0
2017-Jan-18 13:25N 43°42' E 004°37'0 0.0
2017-Jan-18 12:27N 43°42' E 004°37'0 0.0
2017-Jan-18 11:20N 43°42' E 004°37'0 0.0
2017-Jan-18 10:30N 43°42' E 004°37'0 0.0
2017-Jan-18 09:28N 43°42' E 004°37'0 0.0
2017-Jan-18 08:26N 43°42' E 004°37'0 0.0
2017-Jan-18 07:33N 43°42' E 004°37'0 0.0
2017-Jan-18 04:18N 43°42' E 004°37'0 0.0
2017-Jan-18 03:25N 43°42' E 004°37'0 0.0
2017-Jan-18 02:26N 43°42' E 004°37'0 0.0
2017-Jan-18 01:25N 43°42' E 004°37'0 0.0
2017-Jan-17 22:33N 43°42' E 004°37'11 2.8
2017-Jan-17 18:33N 43°32' E 004°44'7 6.9
2017-Jan-17 17:33N 43°25' E 004°45'3 3.4
2017-Jan-17 16:33N 43°23' E 004°48'7 6.7
2017-Jan-17 15:33N 43°22' E 004°58'6 5.7
2017-Jan-17 14:33N 43°17' E 005°02'8 8.3
2017-Jan-17 13:33N 43°12' E 005°10'81 8.0
2017-Jan-17 03:24N 43°15' E 007°01'7 8.5
2017-Jan-17 02:33N 43°19' E 007°09'8 8.2
2017-Jan-17 01:33N 43°24' E 007°18'8 8.1
2017-Jan-17 00:33N 43°29' E 007°26'8 8.4
2017-Jan-16 23:33N 43°35' E 007°36'9 8.9
2017-Jan-16 22:33N 43°40' E 007°45'35 8.7
2017-Jan-16 18:29N 43°51' E 008°32'8 8.3
2017-Jan-16 17:33N 43°53' E 008°42'8 8.2
2017-Jan-16 16:33N 43°55' E 008°53'7 6.6
2017-Jan-16 15:33N 43°54' E 009°02'7 6.6
2017-Jan-16 14:33N 43°47' E 009°05'6 6.1
2017-Jan-16 13:33N 43°41' E 009°06'6 6.4
2017-Jan-16 12:33N 43°35' E 009°09'6 6.4
2017-Jan-16 11:33N 43°30' E 009°13'7 6.9
2017-Jan-16 10:33N 43°24' E 009°19'7 7.2
2017-Jan-16 09:33N 43°18' E 009°25'8 7.6
2017-Jan-16 08:33N 43°12' E 009°31'8 8.1
2017-Jan-16 07:33N 43°05' E 009°37'14 7.0
2017-Jan-16 05:31N 42°53' E 009°48'20 6.3
2017-Jan-16 02:26N 42°41' E 010°08'10 8.6
2017-Jan-16 01:13N 42°39' E 010°22'6 8.2
2017-Jan-16 00:32N 42°38' E 010°30'342 7.0
2017-Jan-13 23:33N 38°31' E 015°42'7 6.7
2017-Jan-13 22:33N 38°25' E 015°42'7 6.6
2017-Jan-13 21:33N 38°18' E 015°42'6 5.8
2017-Jan-13 20:33N 38°14' E 015°37'7 7.0
2017-Jan-13 19:33N 38°07' E 015°37'6 4.5
2017-Jan-13 18:06N 38°00' E 015°37'2 4.2
2017-Jan-13 17:33N 37°58' E 015°38'4 3.9
2017-Jan-13 16:33N 37°55' E 015°41'5 4.3
2017-Jan-13 15:19N 37°54' E 015°47'3 4.0
2017-Jan-13 14:33N 37°53' E 015°51'168 3.7
2017-Jan-11 16:33N 40°30' E 017°10'0 0.0
2017-Jan-11 15:30N 40°30' E 017°10'0 0.0
2017-Jan-11 11:09N 40°30' E 017°10'0 0.0
2017-Jan-11 10:33N 40°30' E 017°10'0 0.0
2017-Jan-11 09:33N 40°30' E 017°10'0 0.0
2017-Jan-11 08:33N 40°30' E 017°10'0 0.0
2017-Jan-11 04:30N 40°30' E 017°10'0 0.0
2017-Jan-11 03:33N 40°30' E 017°10'0 0.0
2017-Jan-11 02:33N 40°30' E 017°10'0 0.0
2017-Jan-11 01:33N 40°30' E 017°10'0 0.0
2017-Jan-11 00:33N 40°30' E 017°10'0 0.0
2017-Jan-10 23:33N 40°30' E 017°10'0 0.0
2017-Jan-10 22:33N 40°30' E 017°10'0 0.0
2017-Jan-10 21:33N 40°30' E 017°10'0 0.0
2017-Jan-10 20:33N 40°30' E 017°10'0 0.0
2017-Jan-10 19:33N 40°30' E 017°10'0 0.0
2017-Jan-10 18:33N 40°30' E 017°10'0 0.0
2017-Jan-10 17:33N 40°30' E 017°10'0 0.0
2017-Jan-10 16:33N 40°30' E 017°10'0 0.0
2017-Jan-10 15:33N 40°30' E 017°10'0 0.0
2017-Jan-10 14:33N 40°30' E 017°10'0 0.0
2017-Jan-10 13:33N 40°30' E 017°10'0 0.0
2017-Jan-10 12:33N 40°30' E 017°10'0 0.0
2017-Jan-10 11:33N 40°30' E 017°10'0 0.0
2017-Jan-10 10:33N 40°30' E 017°10'0 0.0
2017-Jan-10 09:33N 40°30' E 017°10'0 0.0
2017-Jan-10 08:33N 40°30' E 017°10'0 0.0
2017-Jan-10 07:33N 40°30' E 017°10'0 0.0
2017-Jan-10 06:33N 40°30' E 017°10'0 0.0
2017-Jan-10 05:33N 40°30' E 017°10'0 0.0
2017-Jan-10 04:33N 40°30' E 017°10'0 0.0
2017-Jan-10 03:33N 40°30' E 017°10'0 0.0
2017-Jan-10 02:33N 40°30' E 017°10'0 0.0
2017-Jan-10 01:33N 40°30' E 017°10'0 0.0
2017-Jan-10 00:33N 40°30' E 017°10'0 0.0
2017-Jan-09 23:33N 40°30' E 017°10'0 0.0
2017-Jan-09 22:33N 40°30' E 017°10'0 0.0
2017-Jan-09 21:33N 40°30' E 017°10'0 0.0
2017-Jan-09 20:30N 40°30' E 017°10'0 0.0
2017-Jan-09 19:33N 40°30' E 017°10'0 0.0
2017-Jan-09 18:33N 40°30' E 017°10'0 0.0
2017-Jan-09 17:33N 40°30' E 017°10'0 0.0
2017-Jan-09 16:33N 40°30' E 017°10'0 0.0
2017-Jan-09 15:33N 40°30' E 017°10'0 0.0
2017-Jan-09 14:33N 40°30' E 017°10'0 0.0
2017-Jan-09 13:33N 40°30' E 017°10'0 0.0
2017-Jan-09 12:33N 40°30' E 017°10'0 0.0
2017-Jan-09 11:33N 40°30' E 017°10'0 0.0
2017-Jan-09 10:33N 40°30' E 017°10'0 0.0
2017-Jan-09 09:33N 40°30' E 017°10'0 0.0
2017-Jan-09 08:33N 40°30' E 017°10'  
Track history (hours):
 
Tides and Currents Weather Stations Pressure Air Temp Water Temp Dewpoint Dewpoint Depression Visibility Wind Speed Wind Dir Waves Ship Positions

Laguepe

Last reported at 2017-Jan-18 15:33 UTC. Time now 2017-Jan-20 16:08 UTC.
Position N 43°42' E 004°37'.

Length 81 m; draft 3.2 m.

Type: Cargo ship. MMSI: 256681000.

Date/timePositionNaut miles runAvg speedWind from/ knotsBaromVisibWave heightAir tempDewpointWater temp
2017-Jan-18 15:33N 43°42' E 004°37'0 0.0
2017-Jan-18 14:27N 43°42' E 004°37'0 0.0
2017-Jan-18 13:25N 43°42' E 004°37'0 0.0
2017-Jan-18 12:27N 43°42' E 004°37'0 0.0
2017-Jan-18 11:20N 43°42' E 004°37'0 0.0
2017-Jan-18 10:30N 43°42' E 004°37'0 0.0
2017-Jan-18 09:28N 43°42' E 004°37'0 0.0
2017-Jan-18 08:26N 43°42' E 004°37'0 0.0
2017-Jan-18 07:33N 43°42' E 004°37'0 0.0
2017-Jan-18 04:18N 43°42' E 004°37'0 0.0
2017-Jan-18 03:25N 43°42' E 004°37'0 0.0
2017-Jan-18 02:26N 43°42' E 004°37'0 0.0
2017-Jan-18 01:25N 43°42' E 004°37'0 0.0
2017-Jan-17 22:33N 43°42' E 004°37'11 2.8
2017-Jan-17 18:33N 43°32' E 004°44'7 6.9
2017-Jan-17 17:33N 43°25' E 004°45'3 3.4
2017-Jan-17 16:33N 43°23' E 004°48'7 6.7
2017-Jan-17 15:33N 43°22' E 004°58'6 5.7
2017-Jan-17 14:33N 43°17' E 005°02'8 8.3
2017-Jan-17 13:33N 43°12' E 005°10'81 8.0
2017-Jan-17 03:24N 43°15' E 007°01'7 8.5
2017-Jan-17 02:33N 43°19' E 007°09'8 8.2
2017-Jan-17 01:33N 43°24' E 007°18'8 8.1
2017-Jan-17 00:33N 43°29' E 007°26'8 8.4
2017-Jan-16 23:33N 43°35' E 007°36'9 8.9
2017-Jan-16 22:33N 43°40' E 007°45'35 8.7
2017-Jan-16 18:29N 43°51' E 008°32'8 8.3
2017-Jan-16 17:33N 43°53' E 008°42'8 8.2
2017-Jan-16 16:33N 43°55' E 008°53'7 6.6
2017-Jan-16 15:33N 43°54' E 009°02'7 6.6
2017-Jan-16 14:33N 43°47' E 009°05'6 6.1
2017-Jan-16 13:33N 43°41' E 009°06'6 6.4
2017-Jan-16 12:33N 43°35' E 009°09'6 6.4
2017-Jan-16 11:33N 43°30' E 009°13'7 6.9
2017-Jan-16 10:33N 43°24' E 009°19'7 7.2
2017-Jan-16 09:33N 43°18' E 009°25'8 7.6
2017-Jan-16 08:33N 43°12' E 009°31'8 8.1
2017-Jan-16 07:33N 43°05' E 009°37'14 7.0
2017-Jan-16 05:31N 42°53' E 009°48'20 6.3
2017-Jan-16 02:26N 42°41' E 010°08'10 8.6
2017-Jan-16 01:13N 42°39' E 010°22'6 8.2
2017-Jan-16 00:32N 42°38' E 010°30'342 7.0
2017-Jan-13 23:33N 38°31' E 015°42'7 6.7
2017-Jan-13 22:33N 38°25' E 015°42'7 6.6
2017-Jan-13 21:33N 38°18' E 015°42'6 5.8
2017-Jan-13 20:33N 38°14' E 015°37'7 7.0
2017-Jan-13 19:33N 38°07' E 015°37'6 4.5
2017-Jan-13 18:06N 38°00' E 015°37'2 4.2
2017-Jan-13 17:33N 37°58' E 015°38'4 3.9
2017-Jan-13 16:33N 37°55' E 015°41'5 4.3
2017-Jan-13 15:19N 37°54' E 015°47'3 4.0
2017-Jan-13 14:33N 37°53' E 015°51'168 3.7
2017-Jan-11 16:33N 40°30' E 017°10'0 0.0
2017-Jan-11 15:30N 40°30' E 017°10'0 0.0
2017-Jan-11 11:09N 40°30' E 017°10'0 0.0
2017-Jan-11 10:33N 40°30' E 017°10'0 0.0
2017-Jan-11 09:33N 40°30' E 017°10'0 0.0
2017-Jan-11 08:33N 40°30' E 017°10'0 0.0
2017-Jan-11 04:30N 40°30' E 017°10'0 0.0
2017-Jan-11 03:33N 40°30' E 017°10'0 0.0
2017-Jan-11 02:33N 40°30' E 017°10'0 0.0
2017-Jan-11 01:33N 40°30' E 017°10'0 0.0
2017-Jan-11 00:33N 40°30' E 017°10'0 0.0
2017-Jan-10 23:33N 40°30' E 017°10'0 0.0
2017-Jan-10 22:33N 40°30' E 017°10'0 0.0
2017-Jan-10 21:33N 40°30' E 017°10'0 0.0
2017-Jan-10 20:33N 40°30' E 017°10'0 0.0
2017-Jan-10 19:33N 40°30' E 017°10'0 0.0
2017-Jan-10 18:33N 40°30' E 017°10'0 0.0
2017-Jan-10 17:33N 40°30' E 017°10'0 0.0
2017-Jan-10 16:33N 40°30' E 017°10'0 0.0
2017-Jan-10 15:33N 40°30' E 017°10'0 0.0
2017-Jan-10 14:33N 40°30' E 017°10'0 0.0
2017-Jan-10 13:33N 40°30' E 017°10'0 0.0
2017-Jan-10 12:33N 40°30' E 017°10'0 0.0
2017-Jan-10 11:33N 40°30' E 017°10'0 0.0
2017-Jan-10 10:33N 40°30' E 017°10'0 0.0
2017-Jan-10 09:33N 40°30' E 017°10'0 0.0
2017-Jan-10 08:33N 40°30' E 017°10'0 0.0
2017-Jan-10 07:33N 40°30' E 017°10'0 0.0
2017-Jan-10 06:33N 40°30' E 017°10'0 0.0
2017-Jan-10 05:33N 40°30' E 017°10'0 0.0
2017-Jan-10 04:33N 40°30' E 017°10'0 0.0
2017-Jan-10 03:33N 40°30' E 017°10'0 0.0
2017-Jan-10 02:33N 40°30' E 017°10'0 0.0
2017-Jan-10 01:33N 40°30' E 017°10'0 0.0
2017-Jan-10 00:33N 40°30' E 017°10'0 0.0
2017-Jan-09 23:33N 40°30' E 017°10'0 0.0
2017-Jan-09 22:33N 40°30' E 017°10'0 0.0
2017-Jan-09 21:33N 40°30' E 017°10'0 0.0
2017-Jan-09 20:30N 40°30' E 017°10'0 0.0
2017-Jan-09 19:33N 40°30' E 017°10'0 0.0
2017-Jan-09 18:33N 40°30' E 017°10'0 0.0
2017-Jan-09 17:33N 40°30' E 017°10'0 0.0
2017-Jan-09 16:33N 40°30' E 017°10'0 0.0
2017-Jan-09 15:33N 40°30' E 017°10'0 0.0
2017-Jan-09 14:33N 40°30' E 017°10'0 0.0
2017-Jan-09 13:33N 40°30' E 017°10'0 0.0
2017-Jan-09 12:33N 40°30' E 017°10'0 0.0
2017-Jan-09 11:33N 40°30' E 017°10'0 0.0
2017-Jan-09 10:33N 40°30' E 017°10'0 0.0
2017-Jan-09 09:33N 40°30' E 017°10'0 0.0
2017-Jan-09 08:33N 40°30' E 017°10'  

Dump ship's entire track history